createdAt,value
2023-05-19T00:00:17.311Z,2227.00
2023-05-19T00:01:17.327Z,2224.00
2023-05-19T00:02:17.375Z,2226.00
2023-05-19T00:03:17.522Z,2215.00
2023-05-19T00:04:17.387Z,2224.00
2023-05-19T00:05:17.436Z,2230.00
2023-05-19T00:06:17.465Z,2222.00
2023-05-19T00:07:17.488Z,2219.00
2023-05-19T00:08:17.455Z,2212.00
2023-05-19T00:09:17.525Z,2209.00
2023-05-19T00:10:17.525Z,2208.00
2023-05-19T00:11:17.558Z,2203.00
2023-05-19T00:12:17.597Z,2217.00
2023-05-19T00:13:17.617Z,2216.00
2023-05-19T00:14:17.616Z,2210.00
2023-05-19T00:15:18.610Z,2232.00
2023-05-19T00:16:17.798Z,2211.00
2023-05-19T00:17:17.691Z,2213.00
2023-05-19T00:18:17.714Z,2218.00
2023-05-19T00:19:17.837Z,2200.00
2023-05-19T00:20:17.758Z,2206.00
2023-05-19T00:21:17.818Z,2203.00
2023-05-19T00:22:17.897Z,2207.00
2023-05-19T00:23:17.865Z,2205.00
2023-05-19T00:24:17.873Z,2206.00
2023-05-19T00:25:17.908Z,2212.00
2023-05-19T00:26:17.906Z,2211.00
2023-05-19T00:27:17.953Z,2207.00
2023-05-19T00:28:18.003Z,2195.00
2023-05-19T00:29:18.032Z,2213.00
2023-05-19T00:30:18.060Z,2202.00
2023-05-19T00:31:18.132Z,2193.00
2023-05-19T00:32:18.171Z,2200.00
2023-05-19T00:33:18.124Z,2207.00
2023-05-19T00:34:18.142Z,2202.00
2023-05-19T00:35:18.167Z,2191.00
2023-05-19T00:36:18.636Z,2197.00
2023-05-19T00:37:18.228Z,2190.00
2023-05-19T00:38:18.241Z,2192.00
2023-05-19T00:39:18.240Z,2196.00
2023-05-19T00:40:18.262Z,2198.00
2023-05-19T00:41:18.304Z,2198.00
2023-05-19T00:42:18.341Z,2181.00
2023-05-19T00:43:18.380Z,2189.00
2023-05-19T00:44:18.389Z,2199.00
2023-05-19T00:45:18.386Z,2179.00
2023-05-19T00:46:18.445Z,2197.00
2023-05-19T00:47:18.459Z,2199.00
2023-05-19T00:48:18.454Z,2197.00
2023-05-19T00:49:18.482Z,2208.00
2023-05-19T00:50:18.526Z,2183.00
2023-05-19T00:51:18.541Z,2203.00
2023-05-19T00:52:18.612Z,2196.00
2023-05-19T00:53:18.659Z,2210.00
2023-05-19T00:54:18.607Z,2200.00
2023-05-19T00:55:18.630Z,2198.00
2023-05-19T00:56:18.669Z,2205.00
2023-05-19T00:57:18.680Z,2193.00
2023-05-19T00:58:18.708Z,2191.00
2023-05-19T00:59:18.719Z,2201.00
2023-05-19T01:00:18.760Z,2190.00
2023-05-19T01:01:18.824Z,2185.00
2023-05-19T01:02:18.821Z,2199.00
2023-05-19T01:03:18.881Z,2195.00
2023-05-19T01:04:18.862Z,2197.00
2023-05-19T01:05:18.880Z,2187.00
2023-05-19T01:06:18.938Z,2182.00
2023-05-19T01:07:18.952Z,2183.00
2023-05-19T01:08:18.962Z,2182.00
2023-05-19T01:09:18.957Z,2184.00
2023-05-19T01:10:19.029Z,2198.00
2023-05-19T01:11:19.034Z,2182.00
2023-05-19T01:12:19.095Z,2192.00
2023-05-19T01:13:19.105Z,2188.00
2023-05-19T01:14:19.158Z,2190.00
2023-05-19T01:15:19.204Z,2189.00
2023-05-19T01:16:19.177Z,2180.00
2023-05-19T01:17:19.183Z,2183.00
2023-05-19T01:18:19.232Z,2186.00
2023-05-19T01:19:19.367Z,2185.00
2023-05-19T01:20:19.249Z,2188.00
2023-05-19T01:21:19.248Z,2190.00
2023-05-19T01:22:19.264Z,2191.00
2023-05-19T01:23:19.304Z,2174.00
2023-05-19T01:24:19.306Z,2180.00
2023-05-19T01:25:19.338Z,2187.00
2023-05-19T01:26:19.358Z,2172.00
2023-05-19T01:27:19.398Z,2172.00
2023-05-19T01:28:19.462Z,2168.00
2023-05-19T01:29:19.454Z,2163.00
2023-05-19T01:30:19.472Z,2151.00
2023-05-19T01:31:19.525Z,2161.00
2023-05-19T01:32:19.535Z,2167.00
2023-05-19T01:33:19.588Z,2167.00
2023-05-19T01:34:19.590Z,2164.00
2023-05-19T01:35:19.611Z,2157.00
2023-05-19T01:36:19.672Z,2159.00
2023-05-19T01:37:19.672Z,2158.00
2023-05-19T01:38:19.729Z,2153.00
2023-05-19T01:39:19.736Z,2146.00
2023-05-19T01:40:19.775Z,2139.00
2023-05-19T01:41:19.804Z,2141.00
2023-05-19T01:42:19.823Z,2142.00
2023-05-19T01:43:19.839Z,2142.00
2023-05-19T01:44:19.932Z,2141.00
2023-05-19T01:45:19.905Z,2140.00
2023-05-19T01:46:20.058Z,2138.00
2023-05-19T01:47:19.942Z,2130.00
2023-05-19T01:48:19.988Z,2136.00
2023-05-19T01:49:20.025Z,2127.00
2023-05-19T01:50:20.085Z,2134.00
2023-05-19T01:51:20.089Z,2131.00
2023-05-19T01:52:20.123Z,2138.00
2023-05-19T01:53:20.144Z,2133.00
2023-05-19T01:54:20.211Z,2130.00
2023-05-19T01:55:20.200Z,2135.00
2023-05-19T01:56:20.246Z,2127.00
2023-05-19T01:57:20.267Z,2132.00
2023-05-19T01:58:20.346Z,2140.00
2023-05-19T01:59:20.340Z,2132.00
2023-05-19T02:00:21.358Z,2132.00
2023-05-19T02:01:20.452Z,2128.00
2023-05-19T02:02:20.483Z,2129.00
2023-05-19T02:03:20.465Z,2136.00
2023-05-19T02:04:20.579Z,2124.00
2023-05-19T02:05:20.545Z,2127.00
2023-05-19T02:06:20.560Z,2123.00
2023-05-19T02:07:20.599Z,2128.00
2023-05-19T02:08:20.630Z,2115.00
2023-05-19T02:09:20.670Z,2139.00
2023-05-19T02:10:20.725Z,2122.00
2023-05-19T02:11:20.771Z,2115.00
2023-05-19T02:12:20.819Z,2124.00
2023-05-19T02:13:20.877Z,2129.00
2023-05-19T02:14:20.885Z,2106.00
2023-05-19T02:15:20.925Z,2119.00
2023-05-19T02:16:21.137Z,2118.00
2023-05-19T02:17:21.000Z,2110.00
2023-05-19T02:18:21.028Z,2109.00
2023-05-19T02:19:21.074Z,2103.00
2023-05-19T02:20:21.059Z,2114.00
2023-05-19T02:21:21.063Z,2102.00
2023-05-19T02:22:21.124Z,2103.00
2023-05-19T02:23:21.138Z,2103.00
2023-05-19T02:24:21.207Z,2108.00
2023-05-19T02:25:21.236Z,2104.00
2023-05-19T02:26:21.687Z,2107.00
2023-05-19T02:27:21.311Z,2106.00
2023-05-19T02:28:21.355Z,2090.00
2023-05-19T02:29:21.370Z,2100.00
2023-05-19T02:30:21.372Z,2103.00
2023-05-19T02:31:21.420Z,2100.00
2023-05-19T02:32:21.489Z,2099.00
2023-05-19T02:33:22.158Z,2114.00
2023-05-19T02:34:21.527Z,2094.00
2023-05-19T02:35:21.563Z,2097.00
2023-05-19T02:36:21.621Z,2091.00
2023-05-19T02:37:21.628Z,2109.00
2023-05-19T02:38:21.658Z,2100.00
2023-05-19T02:39:21.701Z,2099.00
2023-05-19T02:40:21.756Z,2098.00
2023-05-19T02:41:21.765Z,2092.00
2023-05-19T02:42:21.816Z,2087.00
2023-05-19T02:43:21.811Z,2096.00
2023-05-19T02:44:21.873Z,2105.00
2023-05-19T02:45:21.918Z,2111.00
2023-05-19T02:46:22.263Z,2097.00
2023-05-19T02:47:22.083Z,2097.00
2023-05-19T02:48:22.017Z,2090.00
2023-05-19T02:49:22.078Z,2089.00
2023-05-19T02:50:22.049Z,2098.00
2023-05-19T02:51:22.178Z,2104.00
2023-05-19T02:52:22.139Z,2098.00
2023-05-19T02:53:22.268Z,2087.00
2023-05-19T02:54:22.263Z,2081.00
2023-05-19T02:55:22.281Z,2096.00
2023-05-19T02:56:22.308Z,2093.00
2023-05-19T02:57:22.354Z,2090.00
2023-05-19T02:58:22.386Z,2086.00
2023-05-19T02:59:23.785Z,2092.00
2023-05-19T03:00:22.462Z,2098.00
2023-05-19T03:01:22.452Z,2087.00
2023-05-19T03:02:22.417Z,2089.00
2023-05-19T03:03:22.456Z,2093.00
2023-05-19T03:04:22.419Z,2090.00
2023-05-19T03:05:22.439Z,2090.00
2023-05-19T03:06:22.390Z,2089.00
2023-05-19T03:07:22.475Z,2096.00
2023-05-19T03:08:22.397Z,2111.00
2023-05-19T03:09:22.364Z,2090.00
2023-05-19T03:10:22.371Z,2100.00
2023-05-19T03:11:22.355Z,2108.00
2023-05-19T03:12:22.352Z,2078.00
2023-05-19T03:13:22.330Z,2093.00
2023-05-19T03:14:22.322Z,2104.00
2023-05-19T03:15:22.327Z,2081.00
2023-05-19T03:16:22.382Z,2090.00
2023-05-19T03:17:22.417Z,2096.00
2023-05-19T03:18:22.367Z,2080.00
2023-05-19T03:19:22.359Z,2094.00
2023-05-19T03:20:22.289Z,2081.00
2023-05-19T03:21:22.291Z,2078.00
2023-05-19T03:22:22.291Z,2087.00
2023-05-19T03:23:22.293Z,2063.00
2023-05-19T03:24:22.275Z,2083.00
2023-05-19T03:25:23.139Z,2078.00
2023-05-19T03:26:22.281Z,2063.00
2023-05-19T03:27:22.220Z,2082.00
2023-05-19T03:28:22.229Z,2075.00
2023-05-19T03:29:22.223Z,2090.00
2023-05-19T03:30:22.264Z,2079.00
2023-05-19T03:31:22.253Z,2075.00
2023-05-19T03:32:22.245Z,2087.00
2023-05-19T03:33:22.274Z,2075.00
2023-05-19T03:34:22.173Z,2091.00
2023-05-19T03:35:22.181Z,2092.00
2023-05-19T03:36:22.207Z,2084.00
2023-05-19T03:37:22.168Z,2088.00
2023-05-19T03:38:22.198Z,2073.00
2023-05-19T03:39:22.180Z,2080.00
2023-05-19T03:40:22.151Z,2075.00
2023-05-19T03:41:22.167Z,2058.00
2023-05-19T03:42:22.130Z,2068.00
2023-05-19T03:43:22.143Z,2054.00
2023-05-19T03:44:22.108Z,2062.00
2023-05-19T03:45:22.119Z,2064.00
2023-05-19T03:46:22.199Z,2088.00
2023-05-19T03:47:22.105Z,2075.00
2023-05-19T03:48:22.104Z,2068.00
2023-05-19T03:49:22.079Z,2073.00
2023-05-19T03:50:22.101Z,2056.00
2023-05-19T03:51:22.102Z,2067.00
2023-05-19T03:52:22.050Z,2069.00
2023-05-19T03:53:22.064Z,2082.00
2023-05-19T03:54:22.146Z,2068.00
2023-05-19T03:55:22.152Z,2062.00
2023-05-19T03:56:22.211Z,2057.00
2023-05-19T03:57:22.237Z,2063.00
2023-05-19T03:58:22.288Z,2059.00
2023-05-19T03:59:22.318Z,2059.00
2023-05-19T04:00:22.347Z,2055.00
2023-05-19T04:01:22.424Z,2063.00
2023-05-19T04:02:22.527Z,2068.00
2023-05-19T04:03:22.656Z,2072.00
2023-05-19T04:04:22.563Z,2069.00
2023-05-19T04:05:22.567Z,2057.00
2023-05-19T04:06:22.708Z,2071.00
2023-05-19T04:07:22.654Z,2057.00
2023-05-19T04:08:22.679Z,2064.00
2023-05-19T04:09:22.735Z,2053.00
2023-05-19T04:10:22.771Z,2055.00
2023-05-19T04:11:22.807Z,2055.00
2023-05-19T04:12:22.859Z,2054.00
2023-05-19T04:13:22.869Z,2046.00
2023-05-19T04:14:22.931Z,2064.00
2023-05-19T04:15:22.948Z,2053.00
2023-05-19T04:16:23.394Z,2070.00
2023-05-19T04:17:23.051Z,2051.00
2023-05-19T04:18:23.093Z,2062.00
2023-05-19T04:19:23.161Z,2044.00
2023-05-19T04:20:23.177Z,2053.00
2023-05-19T04:21:23.180Z,2056.00
2023-05-19T04:22:23.191Z,2051.00
2023-05-19T04:23:23.282Z,2062.00
2023-05-19T04:24:23.298Z,2071.00
2023-05-19T04:25:23.327Z,2062.00
2023-05-19T04:26:23.364Z,2061.00
2023-05-19T04:27:23.405Z,2067.00
2023-05-19T04:28:23.461Z,2052.00
2023-05-19T04:29:23.577Z,2060.00
2023-05-19T04:30:23.519Z,2043.00
2023-05-19T04:31:23.640Z,2051.00
2023-05-19T04:32:23.619Z,2055.00
2023-05-19T04:33:23.604Z,2048.00
2023-05-19T04:34:23.685Z,2051.00
2023-05-19T04:35:23.731Z,2040.00
2023-05-19T04:36:23.834Z,2034.00
2023-05-19T04:37:23.783Z,2040.00
2023-05-19T04:38:23.805Z,2043.00
2023-05-19T04:39:23.842Z,2042.00
2023-05-19T04:40:23.941Z,2052.00
2023-05-19T04:41:23.953Z,2038.00
2023-05-19T04:42:23.983Z,2038.00
2023-05-19T04:43:23.980Z,2029.00
2023-05-19T04:44:24.028Z,2033.00
2023-05-19T04:45:24.073Z,2047.00
2023-05-19T04:46:24.162Z,2031.00
2023-05-19T04:47:24.118Z,2035.00
2023-05-19T04:48:24.185Z,2030.00
2023-05-19T04:49:24.255Z,2043.00
2023-05-19T04:50:24.259Z,2034.00
2023-05-19T04:51:24.285Z,2028.00
2023-05-19T04:52:24.287Z,2027.00
2023-05-19T04:53:24.337Z,2033.00
2023-05-19T04:54:24.368Z,2031.00
2023-05-19T04:55:24.416Z,2011.00
2023-05-19T04:56:24.451Z,1985.00
2023-05-19T04:57:24.450Z,1953.00
2023-05-19T04:58:24.515Z,1937.00
2023-05-19T04:59:24.548Z,1912.00
2023-05-19T05:00:24.628Z,1882.00
2023-05-19T05:01:24.726Z,1877.00
2023-05-19T05:02:24.707Z,1867.00
2023-05-19T05:03:24.802Z,1862.00
2023-05-19T05:04:24.794Z,1854.00
2023-05-19T05:05:24.858Z,1835.00
2023-05-19T05:06:24.909Z,1823.00
2023-05-19T05:07:24.941Z,1796.00
2023-05-19T05:08:25.040Z,1799.00
2023-05-19T05:09:25.062Z,1787.00
2023-05-19T05:10:25.138Z,1769.00
2023-05-19T05:11:25.195Z,1754.00
2023-05-19T05:12:25.227Z,1731.00
2023-05-19T05:13:25.294Z,1719.00
2023-05-19T05:14:25.366Z,1718.00
2023-05-19T05:15:25.453Z,1692.00
2023-05-19T05:16:25.572Z,1682.00
2023-05-19T05:17:25.606Z,1679.00
2023-05-19T05:18:25.631Z,1661.00
2023-05-19T05:19:25.793Z,1662.00
2023-05-19T05:20:25.761Z,1631.00
2023-05-19T05:21:25.792Z,1630.00
2023-05-19T05:22:25.822Z,1611.00
2023-05-19T05:23:25.856Z,1591.00
2023-05-19T05:24:25.915Z,1574.00
2023-05-19T05:25:26.005Z,1536.00
2023-05-19T05:26:26.058Z,1534.00
2023-05-19T05:27:26.143Z,1510.00
2023-05-19T05:28:26.207Z,1493.00
2023-05-19T05:29:26.240Z,1490.00
2023-05-19T05:30:26.292Z,1471.00
2023-05-19T05:31:26.366Z,1476.00
2023-05-19T05:32:26.551Z,1454.00
2023-05-19T05:33:26.507Z,1426.00
2023-05-19T05:34:26.517Z,1427.00
2023-05-19T05:35:26.613Z,1397.00
2023-05-19T05:36:26.640Z,1381.00
2023-05-19T05:37:26.725Z,1362.00
2023-05-19T05:38:26.788Z,1356.00
2023-05-19T05:39:26.833Z,1351.00
2023-05-19T05:40:26.908Z,1343.00
2023-05-19T05:41:27.262Z,1331.00
2023-05-19T05:42:29.531Z,1311.00
2023-05-19T05:43:26.994Z,1314.00
2023-05-19T05:44:26.984Z,1322.00
2023-05-19T05:45:27.006Z,1309.00
2023-05-19T05:46:27.072Z,1295.00
2023-05-19T05:47:26.968Z,1285.00
2023-05-19T05:48:26.982Z,1296.00
2023-05-19T05:49:26.973Z,1283.00
2023-05-19T05:50:26.928Z,1283.00
2023-05-19T05:51:26.922Z,1261.00
2023-05-19T05:52:26.925Z,1260.00
2023-05-19T05:53:26.955Z,1238.00
2023-05-19T05:54:26.905Z,1256.00
2023-05-19T05:55:26.935Z,1248.00
2023-05-19T05:56:26.921Z,1255.00
2023-05-19T05:57:26.882Z,1258.00
2023-05-19T05:58:26.897Z,1233.00
2023-05-19T05:59:26.847Z,1237.00
2023-05-19T06:00:26.871Z,1248.00
2023-05-19T06:01:26.881Z,1258.00
2023-05-19T06:02:26.905Z,1249.00
2023-05-19T06:03:26.979Z,1248.00
2023-05-19T06:04:26.831Z,1247.00
2023-05-19T06:05:26.898Z,1240.00
2023-05-19T06:06:26.820Z,1244.00
2023-05-19T06:07:26.819Z,1266.00
2023-05-19T06:08:26.804Z,1265.00
2023-05-19T06:09:26.807Z,1251.00
2023-05-19T06:10:26.824Z,1279.00
2023-05-19T06:11:26.802Z,1288.00
2023-05-19T06:12:26.795Z,1305.00
2023-05-19T06:13:26.830Z,1332.00
2023-05-19T06:14:26.780Z,1347.00
2023-05-19T06:15:26.801Z,1374.00
2023-05-19T06:16:26.794Z,1386.00
2023-05-19T06:17:26.794Z,1403.00
2023-05-19T06:18:26.767Z,1424.00
2023-05-19T06:19:26.962Z,1447.00
2023-05-19T06:20:26.734Z,1468.00
2023-05-19T06:21:26.761Z,1477.00
2023-05-19T06:22:26.712Z,1511.00
2023-05-19T06:23:26.711Z,1520.00
2023-05-19T06:24:26.700Z,1535.00
2023-05-19T06:25:26.731Z,1542.00
2023-05-19T06:26:26.771Z,1544.00
2023-05-19T06:27:26.729Z,1570.00
2023-05-19T06:28:26.715Z,1567.00
2023-05-19T06:29:26.644Z,1577.00
2023-05-19T06:30:26.689Z,1569.00
2023-05-19T06:31:26.822Z,1567.00
2023-05-19T06:32:26.693Z,1537.00
2023-05-19T06:33:28.788Z,1537.00
2023-05-19T06:34:26.742Z,1532.00
2023-05-19T06:35:26.760Z,1517.00
2023-05-19T06:36:26.806Z,1502.00
2023-05-19T06:37:26.800Z,1506.00
2023-05-19T06:38:26.818Z,1497.00
2023-05-19T06:39:26.850Z,1495.00
2023-05-19T06:40:26.846Z,1469.00
2023-05-19T06:41:26.888Z,1444.00
2023-05-19T06:42:26.924Z,1466.00
2023-05-19T06:43:26.945Z,1459.00
2023-05-19T06:44:26.966Z,1442.00
2023-05-19T06:45:26.995Z,1412.00
2023-05-19T06:46:27.299Z,1429.00
2023-05-19T06:47:27.047Z,1447.00
2023-05-19T06:48:27.082Z,1460.00
2023-05-19T06:49:27.102Z,1460.00
2023-05-19T06:50:27.092Z,1444.00
2023-05-19T06:51:27.316Z,1461.00
2023-05-19T06:52:27.169Z,1453.00
2023-05-19T06:53:27.194Z,1467.00
2023-05-19T06:54:27.221Z,1478.00
2023-05-19T06:55:27.181Z,1459.00
2023-05-19T06:56:27.307Z,1463.00
2023-05-19T06:57:27.316Z,1455.00
2023-05-19T06:58:27.412Z,1460.00
2023-05-19T06:59:27.380Z,1472.00
2023-05-19T07:00:27.418Z,1447.00
2023-05-19T07:01:27.943Z,1456.00
2023-05-19T07:02:27.469Z,1434.00
2023-05-19T07:03:27.638Z,1450.00
2023-05-19T07:04:27.461Z,1445.00
2023-05-19T07:05:27.470Z,1429.00
2023-05-19T07:06:27.566Z,1428.00
2023-05-19T07:07:27.753Z,1432.00
2023-05-19T07:08:27.685Z,1435.00
2023-05-19T07:09:27.703Z,1424.00
2023-05-19T07:10:27.691Z,1409.00
2023-05-19T07:11:27.704Z,1410.00
2023-05-19T07:12:27.729Z,1411.00
2023-05-19T07:13:27.845Z,1383.00
2023-05-19T07:14:27.780Z,1366.00
2023-05-19T07:15:27.807Z,1341.00
2023-05-19T07:16:28.280Z,1319.00
2023-05-19T07:17:27.843Z,1291.00
2023-05-19T07:18:27.870Z,1289.00
2023-05-19T07:19:27.958Z,1276.00
2023-05-19T07:20:27.873Z,1262.00
2023-05-19T07:21:28.294Z,1237.00
2023-05-19T07:22:27.953Z,1211.00
2023-05-19T07:23:27.976Z,1209.00
2023-05-19T07:24:27.974Z,1184.00
2023-05-19T07:25:27.970Z,1165.00
2023-05-19T07:26:28.283Z,1150.00
2023-05-19T07:27:28.022Z,1128.00
2023-05-19T07:28:28.140Z,1121.00
2023-05-19T07:29:28.210Z,1111.00
2023-05-19T07:30:28.253Z,1084.00
2023-05-19T07:31:28.295Z,1065.00
2023-05-19T07:32:28.262Z,1044.00
2023-05-19T07:33:28.276Z,1045.00
2023-05-19T07:34:28.284Z,1035.00
2023-05-19T07:35:28.295Z,1022.00
2023-05-19T07:36:28.279Z,1000.00
2023-05-19T07:37:28.292Z,1003.00
2023-05-19T07:38:28.300Z,1000.00
2023-05-19T07:39:28.320Z,981.00
2023-05-19T07:40:28.398Z,966.00
2023-05-19T07:41:28.483Z,958.00
2023-05-19T07:42:28.514Z,947.00
2023-05-19T07:43:28.518Z,985.00
2023-05-19T07:44:28.513Z,948.00
2023-05-19T07:45:28.526Z,941.00
2023-05-19T07:46:28.941Z,942.00
2023-05-19T07:47:28.651Z,928.00
2023-05-19T07:48:28.552Z,893.00
2023-05-19T07:49:28.565Z,893.00
2023-05-19T07:50:28.603Z,883.00
2023-05-19T07:51:28.801Z,885.00
2023-05-19T07:52:28.671Z,883.00
2023-05-19T07:53:28.692Z,897.00
2023-05-19T07:54:28.842Z,886.00
2023-05-19T07:55:28.816Z,890.00
2023-05-19T07:56:28.723Z,899.00
2023-05-19T07:57:28.720Z,901.00
2023-05-19T07:58:28.745Z,901.00
2023-05-19T07:59:28.717Z,908.00
2023-05-19T08:00:28.735Z,921.00
2023-05-19T08:01:28.876Z,898.00
2023-05-19T08:02:29.037Z,918.00
2023-05-19T08:03:29.209Z,906.00
2023-05-19T08:04:29.001Z,910.00
2023-05-19T08:05:29.006Z,911.00
2023-05-19T08:06:28.984Z,925.00
2023-05-19T08:07:29.030Z,914.00
2023-05-19T08:08:29.030Z,899.00
2023-05-19T08:09:29.061Z,885.00
2023-05-19T08:10:29.089Z,900.00
2023-05-19T08:11:29.304Z,905.00
2023-05-19T08:12:29.134Z,894.00
2023-05-19T08:13:29.204Z,890.00
2023-05-19T08:14:29.242Z,896.00
2023-05-19T08:15:29.319Z,875.00
2023-05-19T08:16:29.313Z,879.00
2023-05-19T08:17:29.341Z,872.00
2023-05-19T08:18:29.288Z,866.00
2023-05-19T08:19:29.447Z,853.00
2023-05-19T08:20:29.374Z,865.00
2023-05-19T08:21:29.770Z,848.00
2023-05-19T08:22:29.468Z,837.00
2023-05-19T08:23:29.590Z,841.00
2023-05-19T08:24:29.548Z,830.00
2023-05-19T08:25:29.557Z,815.00
2023-05-19T08:26:29.552Z,807.00
2023-05-19T08:27:29.621Z,801.00
2023-05-19T08:28:29.568Z,789.00
2023-05-19T08:29:29.646Z,796.00
2023-05-19T08:30:29.706Z,791.00
2023-05-19T08:31:29.799Z,793.00
2023-05-19T08:32:29.784Z,788.00
2023-05-19T08:33:29.756Z,781.00
2023-05-19T08:34:29.773Z,773.00
2023-05-19T08:35:29.741Z,775.00
2023-05-19T08:36:29.794Z,787.00
2023-05-19T08:37:30.693Z,779.00
2023-05-19T08:38:29.831Z,770.00
2023-05-19T08:39:29.807Z,773.00
2023-05-19T08:40:29.922Z,786.00
2023-05-19T08:41:29.910Z,789.00
2023-05-19T08:42:29.958Z,796.00
2023-05-19T08:43:29.989Z,801.00
2023-05-19T08:44:29.986Z,808.00
2023-05-19T08:45:30.205Z,792.00
2023-05-19T08:46:30.033Z,777.00
2023-05-19T08:47:30.096Z,775.00
2023-05-19T08:48:30.074Z,775.00
2023-05-19T08:49:30.042Z,759.00
2023-05-19T08:50:30.220Z,773.00
2023-05-19T08:51:30.143Z,757.00
2023-05-19T08:52:30.123Z,742.00
2023-05-19T08:53:34.047Z,745.00
2023-05-19T08:54:30.165Z,745.00
2023-05-19T08:55:30.366Z,744.00
2023-05-19T08:56:30.167Z,740.00
2023-05-19T08:57:30.145Z,733.00
2023-05-19T08:58:30.137Z,724.00
2023-05-19T08:59:30.145Z,736.00
2023-05-19T09:00:30.154Z,712.00
2023-05-19T09:01:30.165Z,707.00
2023-05-19T09:02:30.170Z,693.00
2023-05-19T09:03:30.165Z,695.00
2023-05-19T09:04:30.483Z,687.00
2023-05-19T09:05:30.157Z,699.00
2023-05-19T09:06:30.103Z,708.00
2023-05-19T09:07:30.071Z,693.00
2023-05-19T09:08:30.061Z,718.00
2023-05-19T09:09:30.069Z,715.00
2023-05-19T09:10:30.058Z,723.00
2023-05-19T09:11:30.050Z,715.00
2023-05-19T09:12:30.315Z,719.00
2023-05-19T09:13:30.067Z,709.00
2023-05-19T09:14:30.014Z,708.00
2023-05-19T09:15:30.096Z,710.00
2023-05-19T09:16:30.467Z,727.00
2023-05-19T09:17:30.330Z,728.00
2023-05-19T09:18:30.022Z,725.00
2023-05-19T09:19:30.227Z,716.00
2023-05-19T09:20:29.985Z,731.00
2023-05-19T09:21:30.002Z,729.00
2023-05-19T09:22:30.000Z,737.00
2023-05-19T09:23:29.955Z,731.00
2023-05-19T09:24:29.932Z,753.00
2023-05-19T09:25:29.957Z,742.00
2023-05-19T09:26:29.974Z,751.00
2023-05-19T09:27:29.934Z,761.00
2023-05-19T09:28:29.943Z,730.00
2023-05-19T09:29:29.938Z,735.00
2023-05-19T09:30:29.947Z,747.00
2023-05-19T09:31:29.935Z,743.00
2023-05-19T09:32:30.005Z,744.00
2023-05-19T09:33:29.903Z,744.00
2023-05-19T09:34:29.885Z,709.00
2023-05-19T09:35:29.888Z,695.00
2023-05-19T09:36:29.895Z,695.00
2023-05-19T09:37:30.300Z,681.00
2023-05-19T09:38:29.866Z,667.00
2023-05-19T09:39:29.850Z,667.00
2023-05-19T09:40:29.855Z,664.00
2023-05-19T09:41:29.880Z,666.00
2023-05-19T09:42:29.891Z,669.00
2023-05-19T09:43:29.868Z,658.00
2023-05-19T09:44:30.027Z,652.00
2023-05-19T09:45:29.934Z,651.00
2023-05-19T09:46:29.988Z,650.00
2023-05-19T09:47:30.029Z,650.00
2023-05-19T09:48:30.034Z,650.00
2023-05-19T09:49:30.058Z,652.00
2023-05-19T09:50:30.061Z,645.00
2023-05-19T09:51:30.100Z,642.00
2023-05-19T09:52:30.104Z,635.00
2023-05-19T09:53:30.165Z,628.00
2023-05-19T09:54:30.232Z,637.00
2023-05-19T09:55:30.676Z,636.00
2023-05-19T09:56:30.339Z,647.00
2023-05-19T09:57:30.400Z,637.00
2023-05-19T09:58:30.413Z,634.00
2023-05-19T09:59:32.301Z,624.00
2023-05-19T10:00:30.512Z,631.00
2023-05-19T10:01:30.480Z,626.00
2023-05-19T10:02:30.889Z,646.00
2023-05-19T10:03:30.458Z,646.00
2023-05-19T10:04:30.500Z,659.00
2023-05-19T10:05:30.438Z,661.00
2023-05-19T10:06:30.405Z,669.00
2023-05-19T10:07:30.840Z,661.00
2023-05-19T10:08:30.496Z,655.00
2023-05-19T10:09:30.403Z,652.00
2023-05-19T10:10:30.387Z,681.00
2023-05-19T10:11:30.386Z,664.00
2023-05-19T10:12:30.398Z,659.00
2023-05-19T10:13:30.361Z,635.00
2023-05-19T10:14:30.370Z,633.00
2023-05-19T10:15:30.558Z,637.00
2023-05-19T10:16:30.364Z,655.00
2023-05-19T10:17:30.868Z,648.00
2023-05-19T10:18:30.339Z,643.00
2023-05-19T10:19:30.384Z,652.00
2023-05-19T10:20:30.496Z,632.00
2023-05-19T10:21:30.278Z,625.00
2023-05-19T10:22:30.358Z,630.00
2023-05-19T10:23:30.328Z,620.00
2023-05-19T10:24:30.257Z,619.00
2023-05-19T10:25:30.377Z,624.00
2023-05-19T10:26:30.279Z,614.00
2023-05-19T10:27:30.241Z,616.00
2023-05-19T10:28:30.223Z,615.00
2023-05-19T10:29:30.277Z,621.00
2023-05-19T10:30:30.242Z,615.00
2023-05-19T10:31:30.264Z,605.00
2023-05-19T10:32:30.391Z,613.00
2023-05-19T10:33:30.216Z,627.00
2023-05-19T10:34:30.198Z,621.00
2023-05-19T10:35:31.445Z,620.00
2023-05-19T10:36:30.208Z,626.00
2023-05-19T10:37:30.180Z,626.00
2023-05-19T10:38:30.180Z,625.00
2023-05-19T10:39:30.194Z,623.00
2023-05-19T10:40:30.205Z,620.00
2023-05-19T10:41:30.250Z,626.00
2023-05-19T10:42:30.344Z,622.00
2023-05-19T10:43:30.365Z,628.00
2023-05-19T10:44:30.401Z,625.00
2023-05-19T10:45:30.486Z,627.00
2023-05-19T10:46:30.543Z,633.00
2023-05-19T10:47:30.595Z,638.00
2023-05-19T10:48:30.643Z,640.00
2023-05-19T10:49:30.767Z,643.00
2023-05-19T10:50:30.794Z,630.00
2023-05-19T10:51:30.832Z,640.00
2023-05-19T10:52:30.964Z,647.00
2023-05-19T10:53:30.936Z,652.00
2023-05-19T10:54:31.003Z,650.00
2023-05-19T10:55:31.174Z,650.00
2023-05-19T10:56:31.118Z,641.00
2023-05-19T10:57:31.360Z,644.00
2023-05-19T10:58:31.259Z,645.00
2023-05-19T10:59:31.350Z,653.00
2023-05-19T11:00:31.384Z,658.00
2023-05-19T11:01:31.506Z,652.00
2023-05-19T11:02:31.567Z,652.00
2023-05-19T11:03:31.594Z,658.00
2023-05-19T11:04:31.761Z,664.00
2023-05-19T11:05:31.959Z,661.00
2023-05-19T11:06:31.765Z,663.00
2023-05-19T11:07:31.842Z,668.00
2023-05-19T11:08:31.909Z,666.00
2023-05-19T11:09:40.082Z,661.00
2023-05-19T11:10:32.968Z,661.00
2023-05-19T11:11:33.198Z,662.00
2023-05-19T11:12:31.941Z,663.00
2023-05-19T11:13:31.950Z,657.00
2023-05-19T11:14:31.938Z,654.00
2023-05-19T11:15:32.041Z,651.00
2023-05-19T11:16:31.949Z,653.00
2023-05-19T11:17:33.166Z,665.00
2023-05-19T11:18:31.901Z,659.00
2023-05-19T11:19:31.909Z,659.00
2023-05-19T11:20:31.950Z,657.00
2023-05-19T11:21:32.027Z,663.00
2023-05-19T11:22:32.102Z,659.00
2023-05-19T11:23:33.507Z,655.00
2023-05-19T11:24:32.120Z,660.00
2023-05-19T11:25:32.306Z,670.00
2023-05-19T11:26:32.099Z,665.00
2023-05-19T11:27:32.129Z,658.00
2023-05-19T11:28:32.121Z,662.00
2023-05-19T11:29:32.965Z,662.00
2023-05-19T11:30:32.288Z,662.00
2023-05-19T11:31:32.403Z,662.00
2023-05-19T11:32:32.486Z,662.00
2023-05-19T11:33:32.461Z,656.00
2023-05-19T11:34:32.538Z,660.00
2023-05-19T11:35:33.993Z,657.00
2023-05-19T11:36:32.590Z,671.00
2023-05-19T11:37:32.857Z,664.00
2023-05-19T11:38:32.567Z,676.00
2023-05-19T11:39:32.565Z,658.00
2023-05-19T11:40:32.577Z,657.00
2023-05-19T11:41:32.566Z,657.00
2023-05-19T11:42:32.568Z,653.00
2023-05-19T11:43:32.523Z,661.00
2023-05-19T11:44:32.540Z,656.00
2023-05-19T11:45:32.781Z,658.00
2023-05-19T11:46:32.530Z,655.00
2023-05-19T11:47:41.992Z,649.00
2023-05-19T11:48:33.516Z,649.00
2023-05-19T11:49:32.493Z,650.00
2023-05-19T11:50:32.475Z,651.00
2023-05-19T11:51:32.535Z,644.00
2023-05-19T11:52:32.495Z,644.00
2023-05-19T11:53:34.020Z,641.00
2023-05-19T11:54:32.478Z,650.00
2023-05-19T11:55:32.453Z,645.00
2023-05-19T11:56:32.453Z,643.00
2023-05-19T11:57:32.449Z,633.00
2023-05-19T11:58:32.432Z,635.00
2023-05-19T11:59:34.190Z,634.00
2023-05-19T12:00:32.437Z,634.00
2023-05-19T12:01:32.397Z,634.00
2023-05-19T12:02:32.469Z,621.00
2023-05-19T12:03:32.522Z,614.00
2023-05-19T12:04:32.437Z,611.00
2023-05-19T12:05:34.991Z,620.00
2023-05-19T12:06:33.398Z,620.00
2023-05-19T12:07:32.392Z,620.00
2023-05-19T12:08:32.366Z,621.00
2023-05-19T12:09:32.413Z,618.00
2023-05-19T12:10:32.371Z,614.00
2023-05-19T12:11:32.368Z,604.00
2023-05-19T12:12:32.348Z,607.00
2023-05-19T12:13:32.346Z,607.00
2023-05-19T12:14:32.324Z,612.00